sensor_id;sensor_type;location;lat;lon;timestamp;P1;durP1;ratioP1;P2;durP2;ratioP2
14903;SDS011;7543;53.148;8.234;2024-02-28T00:00:44;36.20;;;14.30;;
14903;SDS011;7543;53.148;8.234;2024-02-28T00:03:12;34.77;;;14.53;;
14903;SDS011;7543;53.148;8.234;2024-02-28T00:05:40;31.63;;;14.90;;
14903;SDS011;7543;53.148;8.234;2024-02-28T00:08:09;34.47;;;14.70;;
14903;SDS011;7543;53.148;8.234;2024-02-28T00:10:38;36.83;;;14.93;;
14903;SDS011;7543;53.148;8.234;2024-02-28T00:13:07;36.83;;;15.17;;
14903;SDS011;7543;53.148;8.234;2024-02-28T00:15:35;31.73;;;13.47;;
14903;SDS011;7543;53.148;8.234;2024-02-28T00:18:03;32.00;;;14.00;;
14903;SDS011;7543;53.148;8.234;2024-02-28T00:20:32;34.80;;;14.67;;
14903;SDS011;7543;53.148;8.234;2024-02-28T00:23:00;37.07;;;15.03;;
14903;SDS011;7543;53.148;8.234;2024-02-28T00:25:28;34.03;;;14.87;;
14903;SDS011;7543;53.148;8.234;2024-02-28T00:27:58;35.87;;;14.40;;
14903;SDS011;7543;53.148;8.234;2024-02-28T00:30:26;40.23;;;15.63;;
14903;SDS011;7543;53.148;8.234;2024-02-28T00:32:55;36.13;;;15.00;;
14903;SDS011;7543;53.148;8.234;2024-02-28T00:35:23;35.70;;;14.63;;
14903;SDS011;7543;53.148;8.234;2024-02-28T00:37:52;34.93;;;14.63;;
14903;SDS011;7543;53.148;8.234;2024-02-28T00:40:20;32.93;;;14.63;;
14903;SDS011;7543;53.148;8.234;2024-02-28T00:42:49;32.77;;;14.37;;
14903;SDS011;7543;53.148;8.234;2024-02-28T00:45:18;34.37;;;14.33;;
14903;SDS011;7543;53.148;8.234;2024-02-28T00:47:47;36.00;;;15.43;;
14903;SDS011;7543;53.148;8.234;2024-02-28T00:50:15;38.93;;;15.00;;
14903;SDS011;7543;53.148;8.234;2024-02-28T00:52:44;37.07;;;15.73;;
14903;SDS011;7543;53.148;8.234;2024-02-28T00:55:12;35.90;;;14.47;;
14903;SDS011;7543;53.148;8.234;2024-02-28T00:57:41;34.93;;;12.77;;
14903;SDS011;7543;53.148;8.234;2024-02-28T01:00:09;30.83;;;13.70;;
14903;SDS011;7543;53.148;8.234;2024-02-28T01:02:40;27.17;;;12.17;;
14903;SDS011;7543;53.148;8.234;2024-02-28T01:05:09;31.73;;;13.20;;
14903;SDS011;7543;53.148;8.234;2024-02-28T01:07:37;34.60;;;14.63;;
14903;SDS011;7543;53.148;8.234;2024-02-28T01:10:06;35.97;;;15.10;;
14903;SDS011;7543;53.148;8.234;2024-02-28T01:12:35;35.90;;;15.27;;
14903;SDS011;7543;53.148;8.234;2024-02-28T01:15:03;34.60;;;14.40;;
14903;SDS011;7543;53.148;8.234;2024-02-28T01:17:32;32.47;;;14.23;;
14903;SDS011;7543;53.148;8.234;2024-02-28T01:20:01;34.97;;;15.23;;
14903;SDS011;7543;53.148;8.234;2024-02-28T01:22:30;37.87;;;15.43;;
14903;SDS011;7543;53.148;8.234;2024-02-28T01:24:58;38.43;;;15.20;;
14903;SDS011;7543;53.148;8.234;2024-02-28T01:27:27;40.80;;;15.13;;
14903;SDS011;7543;53.148;8.234;2024-02-28T01:29:55;41.33;;;15.73;;
14903;SDS011;7543;53.148;8.234;2024-02-28T01:32:23;33.53;;;14.67;;
14903;SDS011;7543;53.148;8.234;2024-02-28T01:34:52;37.23;;;15.13;;
14903;SDS011;7543;53.148;8.234;2024-02-28T01:37:21;36.97;;;15.80;;
14903;SDS011;7543;53.148;8.234;2024-02-28T01:39:50;36.67;;;14.97;;
14903;SDS011;7543;53.148;8.234;2024-02-28T01:42:18;34.90;;;14.73;;
14903;SDS011;7543;53.148;8.234;2024-02-28T01:44:47;31.23;;;13.83;;
14903;SDS011;7543;53.148;8.234;2024-02-28T01:47:16;32.40;;;13.37;;
14903;SDS011;7543;53.148;8.234;2024-02-28T01:49:45;36.10;;;15.03;;
14903;SDS011;7543;53.148;8.234;2024-02-28T01:52:15;32.07;;;15.00;;
14903;SDS011;7543;53.148;8.234;2024-02-28T01:54:44;36.53;;;13.83;;
14903;SDS011;7543;53.148;8.234;2024-02-28T01:57:13;37.63;;;14.80;;
14903;SDS011;7543;53.148;8.234;2024-02-28T01:59:41;37.00;;;14.20;;
14903;SDS011;7543;53.148;8.234;2024-02-28T02:02:10;40.03;;;16.77;;
14903;SDS011;7543;53.148;8.234;2024-02-28T02:04:38;35.40;;;15.17;;
14903;SDS011;7543;53.148;8.234;2024-02-28T02:07:06;36.40;;;15.03;;
14903;SDS011;7543;53.148;8.234;2024-02-28T02:09:35;36.23;;;14.40;;
14903;SDS011;7543;53.148;8.234;2024-02-28T02:12:05;42.07;;;16.33;;
14903;SDS011;7543;53.148;8.234;2024-02-28T02:14:35;38.93;;;16.70;;
14903;SDS011;7543;53.148;8.234;2024-02-28T02:17:03;39.40;;;16.40;;
14903;SDS011;7543;53.148;8.234;2024-02-28T02:19:32;47.97;;;17.53;;
14903;SDS011;7543;53.148;8.234;2024-02-28T02:22:00;45.93;;;17.10;;
14903;SDS011;7543;53.148;8.234;2024-02-28T02:24:33;43.07;;;16.73;;
14903;SDS011;7543;53.148;8.234;2024-02-28T02:27:02;42.73;;;17.43;;
14903;SDS011;7543;53.148;8.234;2024-02-28T02:29:31;43.00;;;17.83;;
14903;SDS011;7543;53.148;8.234;2024-02-28T02:31:59;42.10;;;17.43;;
14903;SDS011;7543;53.148;8.234;2024-02-28T02:34:28;44.40;;;18.77;;
14903;SDS011;7543;53.148;8.234;2024-02-28T02:36:56;41.70;;;18.30;;
14903;SDS011;7543;53.148;8.234;2024-02-28T02:39:24;43.03;;;17.70;;
14903;SDS011;7543;53.148;8.234;2024-02-28T02:41:54;42.50;;;16.93;;
14903;SDS011;7543;53.148;8.234;2024-02-28T02:44:22;44.50;;;15.80;;
14903;SDS011;7543;53.148;8.234;2024-02-28T02:46:51;40.47;;;15.33;;
14903;SDS011;7543;53.148;8.234;2024-02-28T02:49:19;38.10;;;15.20;;
14903;SDS011;7543;53.148;8.234;2024-02-28T02:51:47;39.80;;;15.77;;
14903;SDS011;7543;53.148;8.234;2024-02-28T02:54:16;38.47;;;15.57;;
14903;SDS011;7543;53.148;8.234;2024-02-28T02:56:44;39.27;;;14.17;;
14903;SDS011;7543;53.148;8.234;2024-02-28T02:59:14;40.73;;;15.27;;
14903;SDS011;7543;53.148;8.234;2024-02-28T03:01:42;36.77;;;14.20;;
14903;SDS011;7543;53.148;8.234;2024-02-28T03:04:10;36.43;;;14.07;;
14903;SDS011;7543;53.148;8.234;2024-02-28T03:06:38;36.07;;;14.20;;
14903;SDS011;7543;53.148;8.234;2024-02-28T03:09:07;35.33;;;14.93;;
14903;SDS011;7543;53.148;8.234;2024-02-28T03:11:35;36.60;;;14.13;;
14903;SDS011;7543;53.148;8.234;2024-02-28T03:14:03;30.07;;;12.73;;
14903;SDS011;7543;53.148;8.234;2024-02-28T03:16:33;33.77;;;13.50;;
14903;SDS011;7543;53.148;8.234;2024-02-28T03:19:04;27.53;;;11.97;;
14903;SDS011;7543;53.148;8.234;2024-02-28T03:21:32;31.03;;;11.83;;
14903;SDS011;7543;53.148;8.234;2024-02-28T03:24:01;30.70;;;12.97;;
14903;SDS011;7543;53.148;8.234;2024-02-28T03:26:29;29.87;;;11.87;;
14903;SDS011;7543;53.148;8.234;2024-02-28T03:28:58;34.13;;;13.17;;
14903;SDS011;7543;53.148;8.234;2024-02-28T03:31:26;31.77;;;12.47;;
14903;SDS011;7543;53.148;8.234;2024-02-28T03:33:56;36.77;;;13.90;;
14903;SDS011;7543;53.148;8.234;2024-02-28T03:36:24;32.10;;;12.33;;
14903;SDS011;7543;53.148;8.234;2024-02-28T03:38:52;38.30;;;12.53;;
14903;SDS011;7543;53.148;8.234;2024-02-28T03:41:20;32.63;;;13.43;;
14903;SDS011;7543;53.148;8.234;2024-02-28T03:43:49;36.20;;;13.53;;
14903;SDS011;7543;53.148;8.234;2024-02-28T03:46:17;31.20;;;12.73;;
14903;SDS011;7543;53.148;8.234;2024-02-28T03:48:46;42.97;;;14.50;;
14903;SDS011;7543;53.148;8.234;2024-02-28T03:51:15;33.57;;;12.70;;
14903;SDS011;7543;53.148;8.234;2024-02-28T03:53:43;32.90;;;11.83;;
14903;SDS011;7543;53.148;8.234;2024-02-28T03:56:12;34.40;;;12.77;;
14903;SDS011;7543;53.148;8.234;2024-02-28T03:58:40;34.53;;;13.93;;
14903;SDS011;7543;53.148;8.234;2024-02-28T04:01:08;37.53;;;13.33;;
14903;SDS011;7543;53.148;8.234;2024-02-28T04:03:37;31.63;;;12.73;;
14903;SDS011;7543;53.148;8.234;2024-02-28T04:06:05;28.93;;;11.77;;
14903;SDS011;7543;53.148;8.234;2024-02-28T04:08:35;35.77;;;12.00;;
14903;SDS011;7543;53.148;8.234;2024-02-28T04:11:03;29.40;;;11.20;;
14903;SDS011;7543;53.148;8.234;2024-02-28T04:13:31;27.03;;;11.03;;
14903;SDS011;7543;53.148;8.234;2024-02-28T04:16:00;31.77;;;11.37;;
14903;SDS011;7543;53.148;8.234;2024-02-28T04:18:29;25.23;;;10.47;;
14903;SDS011;7543;53.148;8.234;2024-02-28T04:20:58;24.20;;;10.37;;
14903;SDS011;7543;53.148;8.234;2024-02-28T04:23:26;31.57;;;10.87;;
14903;SDS011;7543;53.148;8.234;2024-02-28T04:25:56;28.57;;;11.97;;
14903;SDS011;7543;53.148;8.234;2024-02-28T04:28:24;27.00;;;11.20;;
14903;SDS011;7543;53.148;8.234;2024-02-28T04:30:52;25.67;;;10.73;;
14903;SDS011;7543;53.148;8.234;2024-02-28T04:33:21;28.80;;;11.40;;
14903;SDS011;7543;53.148;8.234;2024-02-28T04:35:49;29.47;;;12.20;;
14903;SDS011;7543;53.148;8.234;2024-02-28T04:38:18;22.27;;;9.93;;
14903;SDS011;7543;53.148;8.234;2024-02-28T04:40:46;26.73;;;11.80;;
14903;SDS011;7543;53.148;8.234;2024-02-28T04:43:17;29.07;;;11.97;;
14903;SDS011;7543;53.148;8.234;2024-02-28T04:45:46;26.67;;;10.67;;
14903;SDS011;7543;53.148;8.234;2024-02-28T04:48:14;28.20;;;11.53;;
14903;SDS011;7543;53.148;8.234;2024-02-28T04:50:42;30.17;;;11.10;;
14903;SDS011;7543;53.148;8.234;2024-02-28T04:53:11;28.57;;;11.77;;
14903;SDS011;7543;53.148;8.234;2024-02-28T04:55:39;26.30;;;11.20;;
14903;SDS011;7543;53.148;8.234;2024-02-28T04:58:07;30.20;;;12.47;;
14903;SDS011;7543;53.148;8.234;2024-02-28T05:00:37;29.27;;;11.53;;
14903;SDS011;7543;53.148;8.234;2024-02-28T05:03:05;28.43;;;11.53;;
14903;SDS011;7543;53.148;8.234;2024-02-28T05:05:34;29.23;;;12.17;;
14903;SDS011;7543;53.148;8.234;2024-02-28T05:08:02;28.40;;;11.37;;
14903;SDS011;7543;53.148;8.234;2024-02-28T05:10:31;27.80;;;11.97;;
14903;SDS011;7543;53.148;8.234;2024-02-28T05:13:01;30.23;;;12.37;;
14903;SDS011;7543;53.148;8.234;2024-02-28T05:15:30;29.93;;;12.87;;
14903;SDS011;7543;53.148;8.234;2024-02-28T05:18:00;27.47;;;12.03;;
14903;SDS011;7543;53.148;8.234;2024-02-28T05:20:28;29.73;;;12.17;;
14903;SDS011;7543;53.148;8.234;2024-02-28T05:22:56;31.63;;;12.67;;
14903;SDS011;7543;53.148;8.234;2024-02-28T05:25:25;31.97;;;12.67;;
14903;SDS011;7543;53.148;8.234;2024-02-28T05:27:53;34.87;;;13.20;;
14903;SDS011;7543;53.148;8.234;2024-02-28T05:30:21;32.63;;;12.13;;
14903;SDS011;7543;53.148;8.234;2024-02-28T05:32:49;33.30;;;12.83;;
14903;SDS011;7543;53.148;8.234;2024-02-28T05:35:19;29.90;;;11.73;;
14903;SDS011;7543;53.148;8.234;2024-02-28T05:37:47;29.57;;;11.90;;
14903;SDS011;7543;53.148;8.234;2024-02-28T05:40:16;33.67;;;12.50;;
14903;SDS011;7543;53.148;8.234;2024-02-28T05:42:43;30.67;;;12.53;;
14903;SDS011;7543;53.148;8.234;2024-02-28T05:45:11;26.13;;;11.77;;
14903;SDS011;7543;53.148;8.234;2024-02-28T05:47:40;25.20;;;11.40;;
14903;SDS011;7543;53.148;8.234;2024-02-28T05:50:09;29.57;;;11.70;;
14903;SDS011;7543;53.148;8.234;2024-02-28T05:52:40;29.20;;;12.40;;
14903;SDS011;7543;53.148;8.234;2024-02-28T05:55:09;29.53;;;11.87;;
14903;SDS011;7543;53.148;8.234;2024-02-28T05:57:38;30.07;;;12.47;;
14903;SDS011;7543;53.148;8.234;2024-02-28T06:00:06;35.07;;;11.90;;
14903;SDS011;7543;53.148;8.234;2024-02-28T06:02:38;31.20;;;12.27;;
14903;SDS011;7543;53.148;8.234;2024-02-28T06:05:06;30.17;;;12.40;;
14903;SDS011;7543;53.148;8.234;2024-02-28T06:07:35;29.40;;;12.90;;
14903;SDS011;7543;53.148;8.234;2024-02-28T06:10:05;30.17;;;12.10;;
14903;SDS011;7543;53.148;8.234;2024-02-28T06:12:35;30.97;;;12.47;;
14903;SDS011;7543;53.148;8.234;2024-02-28T06:15:04;35.33;;;12.93;;
14903;SDS011;7543;53.148;8.234;2024-02-28T06:17:33;32.43;;;12.27;;
14903;SDS011;7543;53.148;8.234;2024-02-28T06:20:01;26.93;;;11.77;;
14903;SDS011;7543;53.148;8.234;2024-02-28T06:22:30;29.60;;;12.47;;
14903;SDS011;7543;53.148;8.234;2024-02-28T06:24:58;27.93;;;11.97;;
14903;SDS011;7543;53.148;8.234;2024-02-28T06:27:28;29.20;;;12.00;;
14903;SDS011;7543;53.148;8.234;2024-02-28T06:29:58;27.73;;;11.57;;
14903;SDS011;7543;53.148;8.234;2024-02-28T06:32:26;32.73;;;12.10;;
14903;SDS011;7543;53.148;8.234;2024-02-28T06:34:55;28.37;;;11.30;;
14903;SDS011;7543;53.148;8.234;2024-02-28T06:37:23;32.93;;;12.87;;
14903;SDS011;7543;53.148;8.234;2024-02-28T06:39:51;28.50;;;11.87;;
14903;SDS011;7543;53.148;8.234;2024-02-28T06:42:20;28.83;;;11.53;;
14903;SDS011;7543;53.148;8.234;2024-02-28T06:44:49;34.40;;;12.37;;
14903;SDS011;7543;53.148;8.234;2024-02-28T06:47:18;28.60;;;11.80;;
14903;SDS011;7543;53.148;8.234;2024-02-28T06:49:46;29.73;;;12.13;;
14903;SDS011;7543;53.148;8.234;2024-02-28T06:52:15;29.63;;;11.67;;
14903;SDS011;7543;53.148;8.234;2024-02-28T06:54:43;28.17;;;12.40;;
14903;SDS011;7543;53.148;8.234;2024-02-28T06:57:12;25.07;;;11.90;;
14903;SDS011;7543;53.148;8.234;2024-02-28T06:59:41;31.87;;;11.97;;
14903;SDS011;7543;53.148;8.234;2024-02-28T07:02:10;26.27;;;11.57;;
14903;SDS011;7543;53.148;8.234;2024-02-28T07:04:42;29.53;;;12.13;;
14903;SDS011;7543;53.148;8.234;2024-02-28T07:07:10;34.57;;;12.10;;
14903;SDS011;7543;53.148;8.234;2024-02-28T07:09:38;29.37;;;11.63;;
14903;SDS011;7543;53.148;8.234;2024-02-28T07:12:07;31.40;;;12.90;;
14903;SDS011;7543;53.148;8.234;2024-02-28T07:14:35;31.03;;;12.03;;
14903;SDS011;7543;53.148;8.234;2024-02-28T07:17:04;30.30;;;12.73;;
14903;SDS011;7543;53.148;8.234;2024-02-28T07:19:35;29.80;;;12.63;;
14903;SDS011;7543;53.148;8.234;2024-02-28T07:22:03;30.10;;;12.53;;
14903;SDS011;7543;53.148;8.234;2024-02-28T07:24:32;34.27;;;11.83;;
14903;SDS011;7543;53.148;8.234;2024-02-28T07:27:00;27.87;;;12.17;;
14903;SDS011;7543;53.148;8.234;2024-02-28T07:29:29;37.07;;;12.73;;
14903;SDS011;7543;53.148;8.234;2024-02-28T07:31:57;33.60;;;12.13;;
14903;SDS011;7543;53.148;8.234;2024-02-28T07:34:25;31.47;;;13.23;;
14903;SDS011;7543;53.148;8.234;2024-02-28T07:36:55;30.37;;;12.10;;
14903;SDS011;7543;53.148;8.234;2024-02-28T07:39:23;28.43;;;12.00;;
14903;SDS011;7543;53.148;8.234;2024-02-28T07:41:52;32.30;;;13.33;;
14903;SDS011;7543;53.148;8.234;2024-02-28T07:44:20;26.83;;;11.77;;
14903;SDS011;7543;53.148;8.234;2024-02-28T07:46:48;31.10;;;12.43;;
14903;SDS011;7543;53.148;8.234;2024-02-28T07:49:17;27.33;;;11.70;;
14903;SDS011;7543;53.148;8.234;2024-02-28T07:51:45;29.70;;;12.13;;
14903;SDS011;7543;53.148;8.234;2024-02-28T07:54:15;26.93;;;11.63;;
14903;SDS011;7543;53.148;8.234;2024-02-28T07:56:43;29.10;;;11.63;;
14903;SDS011;7543;53.148;8.234;2024-02-28T07:59:12;28.90;;;11.83;;
14903;SDS011;7543;53.148;8.234;2024-02-28T08:01:40;31.07;;;11.97;;
14903;SDS011;7543;53.148;8.234;2024-02-28T08:04:08;27.67;;;12.20;;
14903;SDS011;7543;53.148;8.234;2024-02-28T08:06:37;32.80;;;16.67;;
14903;SDS011;7543;53.148;8.234;2024-02-28T08:09:05;25.33;;;12.10;;
14903;SDS011;7543;53.148;8.234;2024-02-28T08:11:35;25.77;;;11.63;;
14903;SDS011;7543;53.148;8.234;2024-02-28T08:14:03;29.80;;;12.40;;
14903;SDS011;7543;53.148;8.234;2024-02-28T08:16:32;30.63;;;12.67;;
14903;SDS011;7543;53.148;8.234;2024-02-28T08:19:00;26.23;;;10.93;;
14903;SDS011;7543;53.148;8.234;2024-02-28T08:21:28;27.70;;;11.90;;
14903;SDS011;7543;53.148;8.234;2024-02-28T08:23:57;26.57;;;11.57;;
14903;SDS011;7543;53.148;8.234;2024-02-28T08:26:25;27.30;;;11.27;;
14903;SDS011;7543;53.148;8.234;2024-02-28T08:28:55;25.60;;;12.07;;
14903;SDS011;7543;53.148;8.234;2024-02-28T08:31:23;27.23;;;11.73;;
14903;SDS011;7543;53.148;8.234;2024-02-28T08:33:51;22.77;;;10.70;;
14903;SDS011;7543;53.148;8.234;2024-02-28T08:36:20;33.10;;;12.30;;
14903;SDS011;7543;53.148;8.234;2024-02-28T08:38:48;24.63;;;11.60;;
14903;SDS011;7543;53.148;8.234;2024-02-28T08:41:18;24.60;;;10.23;;
14903;SDS011;7543;53.148;8.234;2024-02-28T08:43:46;27.83;;;11.43;;
14903;SDS011;7543;53.148;8.234;2024-02-28T08:46:16;26.67;;;11.87;;
14903;SDS011;7543;53.148;8.234;2024-02-28T08:48:44;23.07;;;10.23;;
14903;SDS011;7543;53.148;8.234;2024-02-28T08:51:12;26.50;;;11.67;;
14903;SDS011;7543;53.148;8.234;2024-02-28T08:53:41;26.70;;;11.30;;
14903;SDS011;7543;53.148;8.234;2024-02-28T08:56:09;25.37;;;11.97;;
14903;SDS011;7543;53.148;8.234;2024-02-28T08:58:37;27.17;;;11.50;;
14903;SDS011;7543;53.148;8.234;2024-02-28T09:01:06;27.00;;;11.50;;
14903;SDS011;7543;53.148;8.234;2024-02-28T09:03:35;24.23;;;11.23;;
14903;SDS011;7543;53.148;8.234;2024-02-28T09:06:04;30.10;;;11.40;;
14903;SDS011;7543;53.148;8.234;2024-02-28T09:08:32;23.53;;;11.07;;
14903;SDS011;7543;53.148;8.234;2024-02-28T09:11:00;27.97;;;12.13;;
14903;SDS011;7543;53.148;8.234;2024-02-28T09:13:29;27.97;;;12.20;;
14903;SDS011;7543;53.148;8.234;2024-02-28T09:15:58;28.87;;;12.10;;
14903;SDS011;7543;53.148;8.234;2024-02-28T09:18:26;25.80;;;11.27;;
14903;SDS011;7543;53.148;8.234;2024-02-28T09:20:56;24.87;;;11.70;;
14903;SDS011;7543;53.148;8.234;2024-02-28T09:23:24;26.97;;;12.03;;
14903;SDS011;7543;53.148;8.234;2024-02-28T09:25:52;30.37;;;11.67;;
14903;SDS011;7543;53.148;8.234;2024-02-28T09:28:22;29.27;;;11.27;;
14903;SDS011;7543;53.148;8.234;2024-02-28T09:30:50;27.57;;;11.43;;
14903;SDS011;7543;53.148;8.234;2024-02-28T09:33:19;25.93;;;11.23;;
14903;SDS011;7543;53.148;8.234;2024-02-28T09:35:47;24.50;;;10.93;;
14903;SDS011;7543;53.148;8.234;2024-02-28T09:38:17;27.03;;;11.97;;
14903;SDS011;7543;53.148;8.234;2024-02-28T09:40:45;28.47;;;12.00;;
14903;SDS011;7543;53.148;8.234;2024-02-28T09:43:15;25.70;;;10.83;;
14903;SDS011;7543;53.148;8.234;2024-02-28T09:45:47;24.27;;;11.27;;
14903;SDS011;7543;53.148;8.234;2024-02-28T09:48:16;23.87;;;11.37;;
14903;SDS011;7543;53.148;8.234;2024-02-28T09:50:45;29.50;;;12.33;;
14903;SDS011;7543;53.148;8.234;2024-02-28T09:53:13;26.33;;;12.50;;
14903;SDS011;7543;53.148;8.234;2024-02-28T09:55:43;25.63;;;11.27;;
14903;SDS011;7543;53.148;8.234;2024-02-28T09:58:11;21.90;;;10.80;;
14903;SDS011;7543;53.148;8.234;2024-02-28T10:00:40;28.83;;;13.13;;
14903;SDS011;7543;53.148;8.234;2024-02-28T10:03:11;25.57;;;11.43;;
14903;SDS011;7543;53.148;8.234;2024-02-28T10:05:40;24.40;;;10.87;;
14903;SDS011;7543;53.148;8.234;2024-02-28T10:08:08;25.23;;;11.40;;
14903;SDS011;7543;53.148;8.234;2024-02-28T10:10:37;21.67;;;10.57;;
14903;SDS011;7543;53.148;8.234;2024-02-28T10:13:07;25.93;;;11.00;;
14903;SDS011;7543;53.148;8.234;2024-02-28T10:15:35;24.80;;;11.10;;
14903;SDS011;7543;53.148;8.234;2024-02-28T10:18:04;25.87;;;11.43;;
14903;SDS011;7543;53.148;8.234;2024-02-28T10:20:33;22.90;;;10.97;;
14903;SDS011;7543;53.148;8.234;2024-02-28T10:23:03;22.73;;;11.43;;
14903;SDS011;7543;53.148;8.234;2024-02-28T10:25:32;25.13;;;11.10;;
14903;SDS011;7543;53.148;8.234;2024-02-28T10:28:00;26.20;;;11.80;;
14903;SDS011;7543;53.148;8.234;2024-02-28T10:30:30;27.13;;;10.53;;
14903;SDS011;7543;53.148;8.234;2024-02-28T10:32:58;32.57;;;11.23;;
14903;SDS011;7543;53.148;8.234;2024-02-28T10:35:27;25.67;;;11.23;;
14903;SDS011;7543;53.148;8.234;2024-02-28T10:37:55;25.53;;;11.03;;
14903;SDS011;7543;53.148;8.234;2024-02-28T10:40:23;25.43;;;11.47;;
14903;SDS011;7543;53.148;8.234;2024-02-28T10:42:52;29.37;;;12.07;;
14903;SDS011;7543;53.148;8.234;2024-02-28T10:45:21;26.73;;;11.87;;
14903;SDS011;7543;53.148;8.234;2024-02-28T10:47:53;20.03;;;10.53;;
14903;SDS011;7543;53.148;8.234;2024-02-28T10:50:22;32.23;;;11.80;;
14903;SDS011;7543;53.148;8.234;2024-02-28T10:52:50;27.17;;;11.50;;
14903;SDS011;7543;53.148;8.234;2024-02-28T10:55:21;25.23;;;10.73;;
14903;SDS011;7543;53.148;8.234;2024-02-28T10:57:53;25.30;;;10.83;;
14903;SDS011;7543;53.148;8.234;2024-02-28T11:00:27;25.23;;;11.47;;
14903;SDS011;7543;53.148;8.234;2024-02-28T11:02:57;27.87;;;11.23;;
14903;SDS011;7543;53.148;8.234;2024-02-28T11:05:34;24.80;;;10.30;;
14903;SDS011;7543;53.148;8.234;2024-02-28T11:08:04;26.17;;;10.90;;
14903;SDS011;7543;53.148;8.234;2024-02-28T11:10:33;27.03;;;11.03;;
14903;SDS011;7543;53.148;8.234;2024-02-28T11:13:01;25.33;;;10.80;;
14903;SDS011;7543;53.148;8.234;2024-02-28T11:15:29;23.57;;;10.97;;
14903;SDS011;7543;53.148;8.234;2024-02-28T11:18:07;24.37;;;10.47;;
14903;SDS011;7543;53.148;8.234;2024-02-28T11:20:36;28.03;;;10.30;;
14903;SDS011;7543;53.148;8.234;2024-02-28T11:23:05;26.37;;;11.67;;
14903;SDS011;7543;53.148;8.234;2024-02-28T11:25:35;27.50;;;10.93;;
14903;SDS011;7543;53.148;8.234;2024-02-28T11:28:04;25.83;;;11.27;;
14903;SDS011;7543;53.148;8.234;2024-02-28T11:30:33;26.93;;;11.77;;
14903;SDS011;7543;53.148;8.234;2024-02-28T11:33:02;26.87;;;11.97;;
14903;SDS011;7543;53.148;8.234;2024-02-28T11:35:32;22.87;;;10.10;;
14903;SDS011;7543;53.148;8.234;2024-02-28T11:38:01;28.40;;;11.60;;
14903;SDS011;7543;53.148;8.234;2024-02-28T11:40:29;28.33;;;11.70;;
14903;SDS011;7543;53.148;8.234;2024-02-28T11:42:57;22.90;;;10.80;;
14903;SDS011;7543;53.148;8.234;2024-02-28T11:45:26;23.50;;;10.97;;
14903;SDS011;7543;53.148;8.234;2024-02-28T11:47:54;26.90;;;11.53;;
14903;SDS011;7543;53.148;8.234;2024-02-28T11:50:22;30.07;;;12.00;;
14903;SDS011;7543;53.148;8.234;2024-02-28T11:52:54;25.50;;;12.00;;
14903;SDS011;7543;53.148;8.234;2024-02-28T11:55:24;25.77;;;12.43;;
14903;SDS011;7543;53.148;8.234;2024-02-28T11:57:52;24.63;;;11.90;;
14903;SDS011;7543;53.148;8.234;2024-02-28T12:00:21;28.50;;;11.77;;
14903;SDS011;7543;53.148;8.234;2024-02-28T12:02:49;28.33;;;12.00;;
14903;SDS011;7543;53.148;8.234;2024-02-28T12:05:18;26.43;;;12.17;;
14903;SDS011;7543;53.148;8.234;2024-02-28T12:07:47;24.10;;;12.67;;
14903;SDS011;7543;53.148;8.234;2024-02-28T12:10:18;25.23;;;13.03;;
14903;SDS011;7543;53.148;8.234;2024-02-28T12:12:46;26.93;;;11.77;;
14903;SDS011;7543;53.148;8.234;2024-02-28T12:15:16;24.07;;;10.97;;
14903;SDS011;7543;53.148;8.234;2024-02-28T12:17:45;21.83;;;11.53;;
14903;SDS011;7543;53.148;8.234;2024-02-28T12:20:13;28.53;;;11.70;;
14903;SDS011;7543;53.148;8.234;2024-02-28T12:22:42;24.17;;;11.33;;
14903;SDS011;7543;53.148;8.234;2024-02-28T12:25:10;25.87;;;11.80;;
14903;SDS011;7543;53.148;8.234;2024-02-28T12:27:40;25.40;;;11.70;;
14903;SDS011;7543;53.148;8.234;2024-02-28T12:30:08;24.37;;;11.50;;
14903;SDS011;7543;53.148;8.234;2024-02-28T12:32:37;23.17;;;11.63;;
14903;SDS011;7543;53.148;8.234;2024-02-28T12:35:06;23.27;;;12.27;;
14903;SDS011;7543;53.148;8.234;2024-02-28T12:37:35;22.27;;;11.63;;
14903;SDS011;7543;53.148;8.234;2024-02-28T12:40:04;25.07;;;11.27;;
14903;SDS011;7543;53.148;8.234;2024-02-28T12:42:35;21.70;;;10.90;;
14903;SDS011;7543;53.148;8.234;2024-02-28T12:45:05;22.63;;;11.50;;
14903;SDS011;7543;53.148;8.234;2024-02-28T12:47:33;27.60;;;11.93;;
14903;SDS011;7543;53.148;8.234;2024-02-28T12:50:02;24.13;;;10.90;;
14903;SDS011;7543;53.148;8.234;2024-02-28T12:52:30;24.00;;;11.40;;
14903;SDS011;7543;53.148;8.234;2024-02-28T12:54:58;24.30;;;11.77;;
14903;SDS011;7543;53.148;8.234;2024-02-28T12:57:27;28.13;;;12.33;;
14903;SDS011;7543;53.148;8.234;2024-02-28T12:59:56;28.07;;;11.87;;
14903;SDS011;7543;53.148;8.234;2024-02-28T13:02:25;24.03;;;11.23;;
14903;SDS011;7543;53.148;8.234;2024-02-28T13:04:53;24.73;;;12.47;;
14903;SDS011;7543;53.148;8.234;2024-02-28T13:07:22;23.30;;;11.97;;
14903;SDS011;7543;53.148;8.234;2024-02-28T13:09:50;24.97;;;11.43;;
14903;SDS011;7543;53.148;8.234;2024-02-28T13:12:19;23.73;;;12.70;;
14903;SDS011;7543;53.148;8.234;2024-02-28T13:14:47;23.47;;;11.93;;
14903;SDS011;7543;53.148;8.234;2024-02-28T13:17:15;28.00;;;13.13;;
14903;SDS011;7543;53.148;8.234;2024-02-28T13:19:47;29.67;;;13.13;;
14903;SDS011;7543;53.148;8.234;2024-02-28T13:22:15;20.23;;;11.43;;
14903;SDS011;7543;53.148;8.234;2024-02-28T13:24:44;20.53;;;11.13;;
14903;SDS011;7543;53.148;8.234;2024-02-28T13:27:12;26.77;;;12.43;;
14903;SDS011;7543;53.148;8.234;2024-02-28T13:29:40;24.90;;;11.10;;
14903;SDS011;7543;53.148;8.234;2024-02-28T13:32:09;20.13;;;10.80;;
14903;SDS011;7543;53.148;8.234;2024-02-28T13:34:37;23.47;;;11.77;;
14903;SDS011;7543;53.148;8.234;2024-02-28T13:37:07;19.93;;;11.23;;
14903;SDS011;7543;53.148;8.234;2024-02-28T13:39:35;26.87;;;10.87;;
14903;SDS011;7543;53.148;8.234;2024-02-28T13:42:03;25.53;;;11.93;;
14903;SDS011;7543;53.148;8.234;2024-02-28T13:44:33;21.37;;;11.60;;
14903;SDS011;7543;53.148;8.234;2024-02-28T13:47:03;21.13;;;10.37;;
14903;SDS011;7543;53.148;8.234;2024-02-28T13:49:32;24.00;;;11.70;;
14903;SDS011;7543;53.148;8.234;2024-02-28T13:52:00;23.33;;;11.43;;
14903;SDS011;7543;53.148;8.234;2024-02-28T13:54:30;23.73;;;11.93;;
14903;SDS011;7543;53.148;8.234;2024-02-28T13:56:59;18.93;;;10.43;;
14903;SDS011;7543;53.148;8.234;2024-02-28T13:59:28;21.37;;;11.17;;
14903;SDS011;7543;53.148;8.234;2024-02-28T14:01:56;21.87;;;10.83;;
14903;SDS011;7543;53.148;8.234;2024-02-28T14:04:26;21.37;;;11.10;;
14903;SDS011;7543;53.148;8.234;2024-02-28T14:06:54;19.63;;;10.23;;
14903;SDS011;7543;53.148;8.234;2024-02-28T14:09:23;23.20;;;11.20;;
14903;SDS011;7543;53.148;8.234;2024-02-28T14:11:52;22.07;;;11.17;;
14903;SDS011;7543;53.148;8.234;2024-02-28T14:14:21;22.50;;;11.23;;
14903;SDS011;7543;53.148;8.234;2024-02-28T14:16:49;22.93;;;11.43;;
14903;SDS011;7543;53.148;8.234;2024-02-28T14:19:17;19.17;;;10.47;;
14903;SDS011;7543;53.148;8.234;2024-02-28T14:21:46;22.73;;;12.00;;
14903;SDS011;7543;53.148;8.234;2024-02-28T14:24:14;22.87;;;11.90;;
14903;SDS011;7543;53.148;8.234;2024-02-28T14:26:45;23.10;;;11.00;;
14903;SDS011;7543;53.148;8.234;2024-02-28T14:29:15;23.40;;;10.63;;
14903;SDS011;7543;53.148;8.234;2024-02-28T14:31:43;20.80;;;10.87;;
14903;SDS011;7543;53.148;8.234;2024-02-28T14:34:12;21.03;;;10.20;;
14903;SDS011;7543;53.148;8.234;2024-02-28T14:36:40;20.37;;;10.23;;
14903;SDS011;7543;53.148;8.234;2024-02-28T14:39:08;19.13;;;10.07;;
14903;SDS011;7543;53.148;8.234;2024-02-28T14:41:41;19.67;;;10.63;;